sensor_id;sensor_type;location;lat;lon;timestamp;P1;durP1;ratioP1;P2;durP2;ratioP2
56381;SDS011;50261;51.150;4.470;2022-12-07T00:00:16;11.95;;;7.13;;
56381;SDS011;50261;51.150;4.470;2022-12-07T00:02:42;12.90;;;7.60;;
56381;SDS011;50261;51.150;4.470;2022-12-07T00:05:08;9.40;;;7.32;;
56381;SDS011;50261;51.150;4.470;2022-12-07T00:07:33;11.57;;;7.47;;
56381;SDS011;50261;51.150;4.470;2022-12-07T00:09:59;14.65;;;7.70;;
56381;SDS011;50261;51.150;4.470;2022-12-07T00:12:25;12.68;;;7.40;;
56381;SDS011;50261;51.150;4.470;2022-12-07T00:14:50;12.73;;;7.95;;
56381;SDS011;50261;51.150;4.470;2022-12-07T00:17:16;10.55;;;7.85;;
56381;SDS011;50261;51.150;4.470;2022-12-07T00:19:42;11.70;;;7.50;;
56381;SDS011;50261;51.150;4.470;2022-12-07T00:22:07;12.63;;;7.85;;
56381;SDS011;50261;51.150;4.470;2022-12-07T00:24:33;13.10;;;7.78;;
56381;SDS011;50261;51.150;4.470;2022-12-07T00:26:58;11.52;;;7.65;;
56381;SDS011;50261;51.150;4.470;2022-12-07T00:29:24;14.32;;;7.75;;
56381;SDS011;50261;51.150;4.470;2022-12-07T00:31:50;14.60;;;8.60;;
56381;SDS011;50261;51.150;4.470;2022-12-07T00:34:17;12.82;;;8.48;;
56381;SDS011;50261;51.150;4.470;2022-12-07T00:36:43;12.02;;;7.25;;
56381;SDS011;50261;51.150;4.470;2022-12-07T00:39:09;10.75;;;7.63;;
56381;SDS011;50261;51.150;4.470;2022-12-07T00:41:34;10.02;;;7.47;;
56381;SDS011;50261;51.150;4.470;2022-12-07T00:44:00;11.40;;;8.45;;
56381;SDS011;50261;51.150;4.470;2022-12-07T00:46:26;12.02;;;8.18;;
56381;SDS011;50261;51.150;4.470;2022-12-07T00:48:52;12.43;;;8.25;;
56381;SDS011;50261;51.150;4.470;2022-12-07T00:51:18;14.05;;;8.15;;
56381;SDS011;50261;51.150;4.470;2022-12-07T00:53:44;11.80;;;8.32;;
56381;SDS011;50261;51.150;4.470;2022-12-07T00:58:42;11.88;;;8.57;;
56381;SDS011;50261;51.150;4.470;2022-12-07T01:01:08;14.90;;;8.50;;
56381;SDS011;50261;51.150;4.470;2022-12-07T01:03:34;10.68;;;8.48;;
56381;SDS011;50261;51.150;4.470;2022-12-07T01:06:00;11.27;;;8.60;;
56381;SDS011;50261;51.150;4.470;2022-12-07T01:08:26;12.73;;;8.13;;
56381;SDS011;50261;51.150;4.470;2022-12-07T01:11:06;12.70;;;8.43;;
56381;SDS011;50261;51.150;4.470;2022-12-07T01:13:32;12.70;;;8.38;;
56381;SDS011;50261;51.150;4.470;2022-12-07T01:15:59;11.68;;;8.18;;
56381;SDS011;50261;51.150;4.470;2022-12-07T01:18:29;10.98;;;8.43;;
56381;SDS011;50261;51.150;4.470;2022-12-07T01:20:58;18.05;;;9.50;;
56381;SDS011;50261;51.150;4.470;2022-12-07T01:23:24;13.73;;;9.18;;
56381;SDS011;50261;51.150;4.470;2022-12-07T01:25:54;12.32;;;8.82;;
56381;SDS011;50261;51.150;4.470;2022-12-07T01:28:19;12.95;;;9.13;;
56381;SDS011;50261;51.150;4.470;2022-12-07T01:30:45;11.50;;;8.68;;
56381;SDS011;50261;51.150;4.470;2022-12-07T01:33:19;15.90;;;9.02;;
56381;SDS011;50261;51.150;4.470;2022-12-07T01:35:45;14.07;;;9.07;;
56381;SDS011;50261;51.150;4.470;2022-12-07T01:38:11;13.40;;;8.90;;
56381;SDS011;50261;51.150;4.470;2022-12-07T01:40:36;11.80;;;8.48;;
56381;SDS011;50261;51.150;4.470;2022-12-07T01:43:02;16.15;;;9.50;;
56381;SDS011;50261;51.150;4.470;2022-12-07T01:45:35;12.10;;;8.65;;
56381;SDS011;50261;51.150;4.470;2022-12-07T01:48:02;11.82;;;8.13;;
56381;SDS011;50261;51.150;4.470;2022-12-07T01:50:28;15.30;;;8.48;;
56381;SDS011;50261;51.150;4.470;2022-12-07T01:52:57;14.15;;;9.48;;
56381;SDS011;50261;51.150;4.470;2022-12-07T01:55:24;14.57;;;9.20;;
56381;SDS011;50261;51.150;4.470;2022-12-07T01:57:51;15.18;;;8.98;;
56381;SDS011;50261;51.150;4.470;2022-12-07T02:00:18;15.30;;;9.13;;
56381;SDS011;50261;51.150;4.470;2022-12-07T02:05:09;15.40;;;8.90;;
56381;SDS011;50261;51.150;4.470;2022-12-07T02:07:36;13.52;;;9.80;;
56381;SDS011;50261;51.150;4.470;2022-12-07T02:10:12;12.18;;;9.23;;
56381;SDS011;50261;51.150;4.470;2022-12-07T02:12:38;13.50;;;9.65;;
56381;SDS011;50261;51.150;4.470;2022-12-07T02:15:03;13.35;;;9.75;;
56381;SDS011;50261;51.150;4.470;2022-12-07T02:17:37;15.20;;;8.70;;
56381;SDS011;50261;51.150;4.470;2022-12-07T02:27:51;11.95;;;8.48;;
56381;SDS011;50261;51.150;4.470;2022-12-07T02:30:22;14.23;;;9.98;;
56381;SDS011;50261;51.150;4.470;2022-12-07T02:35:22;13.35;;;9.52;;
56381;SDS011;50261;51.150;4.470;2022-12-07T02:37:53;16.02;;;9.43;;
56381;SDS011;50261;51.150;4.470;2022-12-07T02:40:31;12.18;;;9.40;;
56381;SDS011;50261;51.150;4.470;2022-12-07T02:43:04;12.85;;;8.95;;
56381;SDS011;50261;51.150;4.470;2022-12-07T02:45:33;13.48;;;9.20;;
56381;SDS011;50261;51.150;4.470;2022-12-07T02:48:00;13.35;;;8.98;;
56381;SDS011;50261;51.150;4.470;2022-12-07T02:50:26;10.73;;;8.95;;
56381;SDS011;50261;51.150;4.470;2022-12-07T02:52:52;13.77;;;9.15;;
56381;SDS011;50261;51.150;4.470;2022-12-07T02:55:18;11.25;;;8.27;;
56381;SDS011;50261;51.150;4.470;2022-12-07T02:58:02;15.55;;;9.77;;
56381;SDS011;50261;51.150;4.470;2022-12-07T03:00:31;12.75;;;8.35;;
56381;SDS011;50261;51.150;4.470;2022-12-07T03:03:01;10.43;;;8.10;;
56381;SDS011;50261;51.150;4.470;2022-12-07T03:10:58;11.45;;;8.07;;
56381;SDS011;50261;51.150;4.470;2022-12-07T03:16:09;12.70;;;7.75;;
56381;SDS011;50261;51.150;4.470;2022-12-07T03:18:38;13.15;;;8.32;;
56381;SDS011;50261;51.150;4.470;2022-12-07T03:21:07;11.55;;;7.35;;
56381;SDS011;50261;51.150;4.470;2022-12-07T03:23:34;14.82;;;7.72;;
56381;SDS011;50261;51.150;4.470;2022-12-07T03:26:02;11.75;;;7.38;;
56381;SDS011;50261;51.150;4.470;2022-12-07T03:28:33;12.35;;;7.18;;
56381;SDS011;50261;51.150;4.470;2022-12-07T03:31:05;12.52;;;7.15;;
56381;SDS011;50261;51.150;4.470;2022-12-07T03:33:33;9.23;;;6.63;;
56381;SDS011;50261;51.150;4.470;2022-12-07T03:36:09;13.82;;;6.88;;
56381;SDS011;50261;51.150;4.470;2022-12-07T03:43:28;9.38;;;6.13;;
56381;SDS011;50261;51.150;4.470;2022-12-07T03:46:04;10.38;;;7.10;;
56381;SDS011;50261;51.150;4.470;2022-12-07T03:48:34;12.70;;;6.43;;
56381;SDS011;50261;51.150;4.470;2022-12-07T03:51:06;11.57;;;6.07;;
56381;SDS011;50261;51.150;4.470;2022-12-07T03:53:37;11.75;;;6.07;;
56381;SDS011;50261;51.150;4.470;2022-12-07T03:56:05;10.57;;;5.93;;
56381;SDS011;50261;51.150;4.470;2022-12-07T03:58:32;10.23;;;5.78;;
56381;SDS011;50261;51.150;4.470;2022-12-07T04:00:58;10.38;;;5.38;;
56381;SDS011;50261;51.150;4.470;2022-12-07T04:03:24;11.70;;;5.65;;
56381;SDS011;50261;51.150;4.470;2022-12-07T04:05:49;7.97;;;5.10;;
56381;SDS011;50261;51.150;4.470;2022-12-07T04:08:15;11.95;;;4.93;;
56381;SDS011;50261;51.150;4.470;2022-12-07T04:10:41;9.25;;;5.05;;
56381;SDS011;50261;51.150;4.470;2022-12-07T04:13:06;8.38;;;4.93;;
56381;SDS011;50261;51.150;4.470;2022-12-07T04:15:32;12.02;;;5.32;;
56381;SDS011;50261;51.150;4.470;2022-12-07T04:17:58;11.60;;;5.13;;
56381;SDS011;50261;51.150;4.470;2022-12-07T04:20:24;9.18;;;5.40;;
56381;SDS011;50261;51.150;4.470;2022-12-07T04:22:50;10.48;;;4.93;;
56381;SDS011;50261;51.150;4.470;2022-12-07T04:25:16;9.90;;;5.13;;
56381;SDS011;50261;51.150;4.470;2022-12-07T04:27:41;9.95;;;4.85;;
56381;SDS011;50261;51.150;4.470;2022-12-07T04:30:07;10.70;;;5.18;;
56381;SDS011;50261;51.150;4.470;2022-12-07T04:32:33;10.80;;;5.00;;
56381;SDS011;50261;51.150;4.470;2022-12-07T04:34:59;10.23;;;5.10;;
56381;SDS011;50261;51.150;4.470;2022-12-07T04:37:25;7.80;;;4.72;;
56381;SDS011;50261;51.150;4.470;2022-12-07T04:39:51;11.70;;;4.90;;
56381;SDS011;50261;51.150;4.470;2022-12-07T04:42:16;10.40;;;4.90;;
56381;SDS011;50261;51.150;4.470;2022-12-07T04:44:42;9.27;;;4.97;;
56381;SDS011;50261;51.150;4.470;2022-12-07T04:47:07;10.95;;;5.40;;
56381;SDS011;50261;51.150;4.470;2022-12-07T04:49:33;11.07;;;5.13;;
56381;SDS011;50261;51.150;4.470;2022-12-07T04:51:59;7.55;;;4.55;;
56381;SDS011;50261;51.150;4.470;2022-12-07T04:54:25;10.98;;;5.40;;
56381;SDS011;50261;51.150;4.470;2022-12-07T04:56:50;13.25;;;5.22;;
56381;SDS011;50261;51.150;4.470;2022-12-07T04:59:16;8.27;;;4.90;;
56381;SDS011;50261;51.150;4.470;2022-12-07T05:01:42;8.77;;;4.57;;
56381;SDS011;50261;51.150;4.470;2022-12-07T05:04:07;6.95;;;4.20;;
56381;SDS011;50261;51.150;4.470;2022-12-07T05:06:33;10.15;;;4.63;;
56381;SDS011;50261;51.150;4.470;2022-12-07T05:08:59;9.70;;;4.60;;
56381;SDS011;50261;51.150;4.470;2022-12-07T05:11:25;8.18;;;4.57;;
56381;SDS011;50261;51.150;4.470;2022-12-07T05:16:37;14.45;;;5.32;;
56381;SDS011;50261;51.150;4.470;2022-12-07T05:19:04;9.95;;;5.10;;
56381;SDS011;50261;51.150;4.470;2022-12-07T05:21:29;12.35;;;5.13;;
56381;SDS011;50261;51.150;4.470;2022-12-07T05:23:55;11.88;;;4.63;;
56381;SDS011;50261;51.150;4.470;2022-12-07T05:26:21;11.27;;;4.80;;
56381;SDS011;50261;51.150;4.470;2022-12-07T05:28:50;8.65;;;5.00;;
56381;SDS011;50261;51.150;4.470;2022-12-07T05:31:16;10.95;;;5.20;;
56381;SDS011;50261;51.150;4.470;2022-12-07T05:33:42;9.15;;;5.25;;
56381;SDS011;50261;51.150;4.470;2022-12-07T05:36:08;9.48;;;4.80;;
56381;SDS011;50261;51.150;4.470;2022-12-07T05:38:34;8.77;;;4.50;;
56381;SDS011;50261;51.150;4.470;2022-12-07T05:41:00;7.80;;;4.88;;
56381;SDS011;50261;51.150;4.470;2022-12-07T05:43:26;10.13;;;5.13;;
56381;SDS011;50261;51.150;4.470;2022-12-07T05:45:52;9.75;;;5.65;;
56381;SDS011;50261;51.150;4.470;2022-12-07T05:48:18;10.73;;;5.85;;
56381;SDS011;50261;51.150;4.470;2022-12-07T05:50:43;9.75;;;5.13;;
56381;SDS011;50261;51.150;4.470;2022-12-07T05:53:10;10.85;;;5.70;;
56381;SDS011;50261;51.150;4.470;2022-12-07T05:55:36;13.60;;;5.10;;
56381;SDS011;50261;51.150;4.470;2022-12-07T05:58:02;10.73;;;5.82;;
56381;SDS011;50261;51.150;4.470;2022-12-07T06:00:45;12.88;;;5.40;;
56381;SDS011;50261;51.150;4.470;2022-12-07T06:03:11;9.13;;;5.03;;
56381;SDS011;50261;51.150;4.470;2022-12-07T06:05:37;7.82;;;4.90;;
56381;SDS011;50261;51.150;4.470;2022-12-07T06:08:03;9.52;;;5.18;;
56381;SDS011;50261;51.150;4.470;2022-12-07T06:10:28;12.63;;;8.18;;
56381;SDS011;50261;51.150;4.470;2022-12-07T06:12:54;14.00;;;8.10;;
56381;SDS011;50261;51.150;4.470;2022-12-07T06:15:20;9.32;;;6.13;;
56381;SDS011;50261;51.150;4.470;2022-12-07T06:17:47;9.07;;;4.93;;
56381;SDS011;50261;51.150;4.470;2022-12-07T06:20:12;8.00;;;5.20;;
56381;SDS011;50261;51.150;4.470;2022-12-07T06:22:38;11.95;;;5.55;;
56381;SDS011;50261;51.150;4.470;2022-12-07T06:25:04;12.38;;;5.43;;
56381;SDS011;50261;51.150;4.470;2022-12-07T06:27:30;14.18;;;5.95;;
56381;SDS011;50261;51.150;4.470;2022-12-07T06:29:56;7.93;;;4.97;;
56381;SDS011;50261;51.150;4.470;2022-12-07T06:32:22;12.35;;;4.90;;
56381;SDS011;50261;51.150;4.470;2022-12-07T06:34:48;11.80;;;5.65;;
56381;SDS011;50261;51.150;4.470;2022-12-07T06:37:13;10.98;;;4.55;;
56381;SDS011;50261;51.150;4.470;2022-12-07T06:39:39;12.43;;;4.70;;
56381;SDS011;50261;51.150;4.470;2022-12-07T06:42:05;13.05;;;4.70;;
56381;SDS011;50261;51.150;4.470;2022-12-07T06:44:31;11.00;;;4.60;;
56381;SDS011;50261;51.150;4.470;2022-12-07T06:46:56;10.55;;;4.78;;
56381;SDS011;50261;51.150;4.470;2022-12-07T06:49:22;10.77;;;4.22;;
56381;SDS011;50261;51.150;4.470;2022-12-07T06:51:48;14.55;;;5.53;;
56381;SDS011;50261;51.150;4.470;2022-12-07T06:54:14;8.70;;;5.00;;
56381;SDS011;50261;51.150;4.470;2022-12-07T06:56:40;9.48;;;4.95;;
56381;SDS011;50261;51.150;4.470;2022-12-07T06:59:06;8.68;;;4.65;;
56381;SDS011;50261;51.150;4.470;2022-12-07T07:01:32;10.30;;;4.57;;
56381;SDS011;50261;51.150;4.470;2022-12-07T07:03:58;10.05;;;4.45;;
56381;SDS011;50261;51.150;4.470;2022-12-07T07:06:24;9.07;;;4.25;;
56381;SDS011;50261;51.150;4.470;2022-12-07T07:08:49;11.70;;;4.68;;
56381;SDS011;50261;51.150;4.470;2022-12-07T07:11:15;8.18;;;4.43;;
56381;SDS011;50261;51.150;4.470;2022-12-07T07:13:40;13.23;;;4.95;;
56381;SDS011;50261;51.150;4.470;2022-12-07T07:16:06;8.80;;;4.38;;
56381;SDS011;50261;51.150;4.470;2022-12-07T07:18:32;11.30;;;4.68;;
56381;SDS011;50261;51.150;4.470;2022-12-07T07:20:57;9.45;;;4.63;;
56381;SDS011;50261;51.150;4.470;2022-12-07T07:23:23;8.32;;;4.63;;
56381;SDS011;50261;51.150;4.470;2022-12-07T07:25:49;10.52;;;4.80;;
56381;SDS011;50261;51.150;4.470;2022-12-07T07:28:15;14.38;;;5.20;;
56381;SDS011;50261;51.150;4.470;2022-12-07T07:30:40;8.35;;;5.07;;
56381;SDS011;50261;51.150;4.470;2022-12-07T07:33:05;13.93;;;5.38;;
56381;SDS011;50261;51.150;4.470;2022-12-07T07:35:31;12.40;;;5.18;;
56381;SDS011;50261;51.150;4.470;2022-12-07T07:38:00;11.38;;;5.32;;
56381;SDS011;50261;51.150;4.470;2022-12-07T07:40:28;10.65;;;4.90;;
56381;SDS011;50261;51.150;4.470;2022-12-07T07:42:54;11.07;;;5.32;;
56381;SDS011;50261;51.150;4.470;2022-12-07T07:45:20;14.45;;;5.80;;
56381;SDS011;50261;51.150;4.470;2022-12-07T07:47:46;12.27;;;5.60;;
56381;SDS011;50261;51.150;4.470;2022-12-07T07:50:12;11.75;;;5.55;;
56381;SDS011;50261;51.150;4.470;2022-12-07T07:52:38;12.15;;;5.25;;
56381;SDS011;50261;51.150;4.470;2022-12-07T07:55:04;7.85;;;5.13;;
56381;SDS011;50261;51.150;4.470;2022-12-07T07:57:29;13.88;;;5.72;;
56381;SDS011;50261;51.150;4.470;2022-12-07T07:59:54;13.43;;;5.40;;
56381;SDS011;50261;51.150;4.470;2022-12-07T08:02:20;8.48;;;4.60;;
56381;SDS011;50261;51.150;4.470;2022-12-07T08:04:47;10.18;;;4.55;;
56381;SDS011;50261;51.150;4.470;2022-12-07T08:07:13;10.50;;;4.78;;
56381;SDS011;50261;51.150;4.470;2022-12-07T08:09:38;9.55;;;4.45;;
56381;SDS011;50261;51.150;4.470;2022-12-07T08:12:04;9.02;;;5.15;;
56381;SDS011;50261;51.150;4.470;2022-12-07T08:14:30;10.07;;;5.43;;
56381;SDS011;50261;51.150;4.470;2022-12-07T08:16:56;12.75;;;5.15;;
56381;SDS011;50261;51.150;4.470;2022-12-07T08:19:21;9.15;;;5.35;;
56381;SDS011;50261;51.150;4.470;2022-12-07T08:21:47;9.88;;;5.10;;
56381;SDS011;50261;51.150;4.470;2022-12-07T08:24:13;8.63;;;5.00;;
56381;SDS011;50261;51.150;4.470;2022-12-07T08:26:39;11.95;;;4.85;;
56381;SDS011;50261;51.150;4.470;2022-12-07T08:29:05;10.25;;;5.43;;
56381;SDS011;50261;51.150;4.470;2022-12-07T08:31:31;9.60;;;6.00;;
56381;SDS011;50261;51.150;4.470;2022-12-07T08:33:57;17.08;;;9.05;;
56381;SDS011;50261;51.150;4.470;2022-12-07T08:36:23;15.88;;;11.18;;
56381;SDS011;50261;51.150;4.470;2022-12-07T08:38:48;11.95;;;5.95;;
56381;SDS011;50261;51.150;4.470;2022-12-07T08:41:14;10.32;;;4.85;;
56381;SDS011;50261;51.150;4.470;2022-12-07T08:43:40;11.32;;;5.00;;
56381;SDS011;50261;51.150;4.470;2022-12-07T08:48:32;9.48;;;4.25;;
56381;SDS011;50261;51.150;4.470;2022-12-07T08:50:58;11.00;;;4.50;;
56381;SDS011;50261;51.150;4.470;2022-12-07T08:53:24;11.32;;;4.50;;
56381;SDS011;50261;51.150;4.470;2022-12-07T08:55:49;9.80;;;4.85;;
56381;SDS011;50261;51.150;4.470;2022-12-07T08:58:15;10.98;;;4.15;;
56381;SDS011;50261;51.150;4.470;2022-12-07T09:00:41;11.32;;;4.43;;
56381;SDS011;50261;51.150;4.470;2022-12-07T09:03:07;11.85;;;4.93;;
56381;SDS011;50261;51.150;4.470;2022-12-07T09:05:33;9.60;;;4.75;;
56381;SDS011;50261;51.150;4.470;2022-12-07T09:08:00;9.63;;;4.35;;
56381;SDS011;50261;51.150;4.470;2022-12-07T09:10:26;8.88;;;4.55;;
56381;SDS011;50261;51.150;4.470;2022-12-07T09:12:52;13.77;;;4.72;;
56381;SDS011;50261;51.150;4.470;2022-12-07T09:15:18;12.82;;;4.63;;
56381;SDS011;50261;51.150;4.470;2022-12-07T09:17:43;9.15;;;4.57;;
56381;SDS011;50261;51.150;4.470;2022-12-07T09:20:09;10.38;;;4.65;;
56381;SDS011;50261;51.150;4.470;2022-12-07T09:22:35;10.50;;;4.57;;
56381;SDS011;50261;51.150;4.470;2022-12-07T09:25:01;13.77;;;4.38;;
56381;SDS011;50261;51.150;4.470;2022-12-07T09:27:27;10.55;;;4.25;;
56381;SDS011;50261;51.150;4.470;2022-12-07T09:29:53;11.80;;;4.65;;
56381;SDS011;50261;51.150;4.470;2022-12-07T09:32:19;11.38;;;4.32;;
56381;SDS011;50261;51.150;4.470;2022-12-07T09:34:45;9.55;;;4.43;;
56381;SDS011;50261;51.150;4.470;2022-12-07T09:37:11;9.35;;;4.32;;
56381;SDS011;50261;51.150;4.470;2022-12-07T09:39:39;13.85;;;4.88;;
56381;SDS011;50261;51.150;4.470;2022-12-07T09:42:05;9.93;;;3.90;;
56381;SDS011;50261;51.150;4.470;2022-12-07T09:44:32;10.95;;;4.20;;
56381;SDS011;50261;51.150;4.470;2022-12-07T09:46:58;9.48;;;3.90;;
56381;SDS011;50261;51.150;4.470;2022-12-07T09:49:25;11.00;;;4.53;;
56381;SDS011;50261;51.150;4.470;2022-12-07T09:52:15;10.95;;;4.00;;
56381;SDS011;50261;51.150;4.470;2022-12-07T09:54:43;9.13;;;3.72;;
56381;SDS011;50261;51.150;4.470;2022-12-07T09:57:10;8.18;;;4.05;;
56381;SDS011;50261;51.150;4.470;2022-12-07T09:59:37;9.15;;;5.13;;
56381;SDS011;50261;51.150;4.470;2022-12-07T10:04:47;9.10;;;4.40;;
56381;SDS011;50261;51.150;4.470;2022-12-07T10:07:13;9.65;;;4.13;;
56381;SDS011;50261;51.150;4.470;2022-12-07T10:09:39;11.38;;;4.28;;
56381;SDS011;50261;51.150;4.470;2022-12-07T10:12:09;10.13;;;4.60;;
56381;SDS011;50261;51.150;4.470;2022-12-07T10:14:36;9.82;;;4.38;;
56381;SDS011;50261;51.150;4.470;2022-12-07T10:17:02;14.55;;;5.20;;
56381;SDS011;50261;51.150;4.470;2022-12-07T10:19:29;14.50;;;5.38;;
56381;SDS011;50261;51.150;4.470;2022-12-07T10:22:02;9.70;;;4.30;;
56381;SDS011;50261;51.150;4.470;2022-12-07T10:24:28;11.18;;;5.10;;
56381;SDS011;50261;51.150;4.470;2022-12-07T10:26:54;8.45;;;4.72;;
56381;SDS011;50261;51.150;4.470;2022-12-07T10:29:21;9.32;;;4.85;;
56381;SDS011;50261;51.150;4.470;2022-12-07T10:31:51;13.25;;;4.55;;
56381;SDS011;50261;51.150;4.470;2022-12-07T10:36:46;10.13;;;4.03;;
56381;SDS011;50261;51.150;4.470;2022-12-07T10:39:15;10.15;;;3.90;;
56381;SDS011;50261;51.150;4.470;2022-12-07T10:41:59;7.38;;;3.20;;
56381;SDS011;50261;51.150;4.470;2022-12-07T10:44:29;10.70;;;4.88;;
56381;SDS011;50261;51.150;4.470;2022-12-07T10:52:01;7.82;;;3.10;;
56381;SDS011;50261;51.150;4.470;2022-12-07T10:54:44;8.38;;;2.80;;
56381;SDS011;50261;51.150;4.470;2022-12-07T11:05:39;7.65;;;2.90;;
56381;SDS011;50261;51.150;4.470;2022-12-07T11:15:45;11.20;;;3.28;;
56381;SDS011;50261;51.150;4.470;2022-12-07T11:20:43;9.13;;;2.80;;
56381;SDS011;50261;51.150;4.470;2022-12-07T11:28:40;9.73;;;2.78;;
56381;SDS011;50261;51.150;4.470;2022-12-07T11:31:12;8.68;;;3.35;;
56381;SDS011;50261;51.150;4.470;2022-12-07T11:34:00;8.70;;;2.92;;
56381;SDS011;50261;51.150;4.470;2022-12-07T11:36:37;9.13;;;2.95;;
56381;SDS011;50261;51.150;4.470;2022-12-07T11:39:10;10.63;;;3.20;;
56381;SDS011;50261;51.150;4.470;2022-12-07T11:41:38;7.93;;;2.67;;
56381;SDS011;50261;51.150;4.470;2022-12-07T11:44:07;10.50;;;3.08;;
56381;SDS011;50261;51.150;4.470;2022-12-07T11:46:44;10.45;;;3.00;;
56381;SDS011;50261;51.150;4.470;2022-12-07T11:51:37;8.85;;;3.67;;
56381;SDS011;50261;51.150;4.470;2022-12-07T11:54:21;10.05;;;3.15;;
56381;SDS011;50261;51.150;4.470;2022-12-07T11:56:49;5.72;;;2.60;;
56381;SDS011;50261;51.150;4.470;2022-12-07T11:59:17;10.65;;;3.05;;
56381;SDS011;50261;51.150;4.470;2022-12-07T12:01:48;8.38;;;2.97;;
56381;SDS011;50261;51.150;4.470;2022-12-07T12:06:42;4.90;;;2.30;;
56381;SDS011;50261;51.150;4.470;2022-12-07T12:14:02;2.95;;;1.27;;
56381;SDS011;50261;51.150;4.470;2022-12-07T12:21:40;3.33;;;1.40;;
56381;SDS011;50261;51.150;4.470;2022-12-07T12:24:11;5.68;;;1.50;;
56381;SDS011;50261;51.150;4.470;2022-12-07T12:26:38;4.57;;;1.60;;
56381;SDS011;50261;51.150;4.470;2022-12-07T12:29:17;5.38;;;1.70;;
56381;SDS011;50261;51.150;4.470;2022-12-07T12:31:46;6.03;;;1.60;;
56381;SDS011;50261;51.150;4.470;2022-12-07T12:36:56;4.50;;;1.40;;
56381;SDS011;50261;51.150;4.470;2022-12-07T12:39:22;2.72;;;1.30;;
56381;SDS011;50261;51.150;4.470;2022-12-07T12:41:55;2.53;;;1.00;;
56381;SDS011;50261;51.150;4.470;2022-12-07T12:49:33;2.28;;;1.02;;
56381;SDS011;50261;51.150;4.470;2022-12-07T12:54:37;6.93;;;1.08;;
56381;SDS011;50261;51.150;4.470;2022-12-07T13:02:24;6.78;;;1.77;;
56381;SDS011;50261;51.150;4.470;2022-12-07T13:04:52;5.05;;;1.92;;
56381;SDS011;50261;51.150;4.470;2022-12-07T13:10:03;7.53;;;2.05;;
56381;SDS011;50261;51.150;4.470;2022-12-07T13:12:29;3.55;;;1.50;;
56381;SDS011;50261;51.150;4.470;2022-12-07T13:14:56;9.40;;;2.13;;
56381;SDS011;50261;51.150;4.470;2022-12-07T13:27:33;4.68;;;2.30;;
56381;SDS011;50261;51.150;4.470;2022-12-07T13:30:00;6.93;;;2.75;;
56381;SDS011;50261;51.150;4.470;2022-12-07T13:32:27;12.73;;;3.28;;
56381;SDS011;50261;51.150;4.470;2022-12-07T13:34:53;6.03;;;3.60;;
56381;SDS011;50261;51.150;4.470;2022-12-07T13:37:29;7.15;;;4.53;;
56381;SDS011;50261;51.150;4.470;2022-12-07T13:39:56;5.65;;;3.53;;
56381;SDS011;50261;51.150;4.470;2022-12-07T13:42:29;4.93;;;2.35;;
56381;SDS011;50261;51.150;4.470;2022-12-07T13:44:56;9.27;;;2.58;;
56381;SDS011;50261;51.150;4.470;2022-12-07T13:49:54;3.30;;;1.60;;
56381;SDS011;50261;51.150;4.470;2022-12-07T13:54:58;3.35;;;1.55;;
56381;SDS011;50261;51.150;4.470;2022-12-07T13:57:24;3.05;;;1.50;;
56381;SDS011;50261;51.150;4.470;2022-12-07T13:59:50;4.80;;;1.50;;
56381;SDS011;50261;51.150;4.470;2022-12-07T14:02:20;4.35;;;1.50;;
56381;SDS011;50261;51.150;4.470;2022-12-07T14:04:47;4.97;;;1.48;;
56381;SDS011;50261;51.150;4.470;2022-12-07T14:07:26;4.13;;;1.20;;
56381;SDS011;50261;51.150;4.470;2022-12-07T14:09:53;3.75;;;1.30;;
56381;SDS011;50261;51.150;4.470;2022-12-07T14:12:19;3.25;;;1.40;;
56381;SDS011;50261;51.150;4.470;2022-12-07T14:14:48;5.13;;;1.30;;
56381;SDS011;50261;51.150;4.470;2022-12-07T14:17:22;3.63;;;1.63;;
56381;SDS011;50261;51.150;4.470;2022-12-07T14:22:27;4.18;;;1.95;;
56381;SDS011;50261;51.150;4.470;2022-12-07T14:27:29;1.67;;;1.00;;
56381;SDS011;50261;51.150;4.470;2022-12-07T14:29:56;6.28;;;1.05;;
56381;SDS011;50261;51.150;4.470;2022-12-07T14:32:25;3.65;;;1.10;;
56381;SDS011;50261;51.150;4.470;2022-12-07T14:34:55;4.30;;;0.90;;
56381;SDS011;50261;51.150;4.470;2022-12-07T14:37:21;3.92;;;1.10;;
56381;SDS011;50261;51.150;4.470;2022-12-07T14:39:47;2.55;;;1.20;;
56381;SDS011;50261;51.150;4.470;2022-12-07T14:42:12;3.35;;;1.27;;
56381;SDS011;50261;51.150;4.470;2022-12-07T14:44:38;6.43;;;1.20;;
56381;SDS011;50261;51.150;4.470;2022-12-07T14:47:04;3.15;;;1.20;;
56381;SDS011;50261;51.150;4.470;2022-12-07T14:49:30;3.97;;;1.42;;
56381;SDS011;50261;51.150;4.470;2022-12-07T14:51:55;4.28;;;1.55;;
56381;SDS011;50261;51.150;4.470;2022-12-07T14:54:21;6.32;;;1.42;;
56381;SDS011;50261;51.150;4.470;2022-12-07T14:56:50;4.13;;;1.35;;
56381;SDS011;50261;51.150;4.470;2022-12-07T14:59:17;5.97;;;1.30;;
56381;SDS011;50261;51.150;4.470;2022-12-07T15:01:44;4.13;;;1.33;;
56381;SDS011;50261;51.150;4.470;2022-12-07T15:04:09;6.00;;;1.73;;
56381;SDS011;50261;51.150;4.470;2022-12-07T15:06:35;4.57;;;1.38;;
56381;SDS011;50261;51.150;4.470;2022-12-07T15:09:01;7.10;;;1.40;;
56381;SDS011;50261;51.150;4.470;2022-12-07T15:11:27;4.40;;;1.00;;
56381;SDS011;50261;51.150;4.470;2022-12-07T15:13:53;3.83;;;1.17;;
56381;SDS011;50261;51.150;4.470;2022-12-07T15:16:34;3.38;;;1.02;;
56381;SDS011;50261;51.150;4.470;2022-12-07T15:19:03;2.85;;;1.05;;
56381;SDS011;50261;51.150;4.470;2022-12-07T15:21:32;5.20;;;1.30;;
56381;SDS011;50261;51.150;4.470;2022-12-07T15:23:57;2.72;;;1.20;;
56381;SDS011;50261;51.150;4.470;2022-12-07T15:26:23;6.20;;;1.77;;
56381;SDS011;50261;51.150;4.470;2022-12-07T15:28:49;4.88;;;1.52;;
56381;SDS011;50261;51.150;4.470;2022-12-07T15:31:16;2.85;;;1.20;;
56381;SDS011;50261;51.150;4.470;2022-12-07T15:33:42;3.88;;;1.52;;
56381;SDS011;50261;51.150;4.470;2022-12-07T15:36:09;6.82;;;2.00;;
56381;SDS011;50261;51.150;4.470;2022-12-07T15:38:41;4.10;;;1.95;;
56381;SDS011;50261;51.150;4.470;2022-12-07T15:41:09;7.05;;;2.60;;
56381;SDS011;50261;51.150;4.470;2022-12-07T15:43:35;9.48;;;2.38;;
56381;SDS011;50261;51.150;4.470;2022-12-07T15:46:19;6.55;;;3.00;;
56381;SDS011;50261;51.150;4.470;2022-12-07T15:48:47;9.20;;;2.60;;
56381;SDS011;50261;51.150;4.470;2022-12-07T15:51:13;8.32;;;2.30;;
56381;SDS011;50261;51.150;4.470;2022-12-07T15:53:39;6.05;;;2.25;;
56381;SDS011;50261;51.150;4.470;2022-12-07T15:56:05;10.70;;;2.30;;
56381;SDS011;50261;51.150;4.470;2022-12-07T15:58:34;5.90;;;1.83;;
56381;SDS011;50261;51.150;4.470;2022-12-07T16:01:00;5.72;;;2.22;;
56381;SDS011;50261;51.150;4.470;2022-12-07T16:03:29;5.75;;;1.95;;
56381;SDS011;50261;51.150;4.470;2022-12-07T16:05:54;5.78;;;1.95;;
56381;SDS011;50261;51.150;4.470;2022-12-07T16:08:20;7.07;;;2.80;;
56381;SDS011;50261;51.150;4.470;2022-12-07T16:10:46;5.13;;;2.40;;
56381;SDS011;50261;51.150;4.470;2022-12-07T16:13:11;6.00;;;2.65;;
56381;SDS011;50261;51.150;4.470;2022-12-07T16:15:39;3.78;;;1.92;;
56381;SDS011;50261;51.150;4.470;2022-12-07T16:18:04;12.35;;;2.35;;
56381;SDS011;50261;51.150;4.470;2022-12-07T16:20:30;6.97;;;2.03;;
56381;SDS011;50261;51.150;4.470;2022-12-07T16:22:56;5.10;;;2.38;;
56381;SDS011;50261;51.150;4.470;2022-12-07T16:25:22;6.03;;;2.22;;
56381;SDS011;50261;51.150;4.470;2022-12-07T16:27:48;5.28;;;2.00;;
56381;SDS011;50261;51.150;4.470;2022-12-07T16:30:14;3.17;;;1.70;;
56381;SDS011;50261;51.150;4.470;2022-12-07T16:32:41;8.15;;;1.90;;
56381;SDS011;50261;51.150;4.470;2022-12-07T16:35:08;8.82;;;1.55;;
56381;SDS011;50261;51.150;4.470;2022-12-07T16:37:33;6.35;;;1.70;;
56381;SDS011;50261;51.150;4.470;2022-12-07T16:39:59;5.63;;;1.50;;
56381;SDS011;50261;51.150;4.470;2022-12-07T16:42:25;4.20;;;2.00;;